Time;durP1;ratioP1;P1;durP2;ratioP2;P2;SDS_P1;SDS_P2;PMS_P1;PMS_P2;Temp;Humidity;BMP_temperature;BMP_pressure;BME280_temperature;BME280_humidity;BME280_pressure;Samples;Min_cycle;Max_cycle;Signal;HPM_P1;HPM_P2
2022/04/17 00:02:02;;;;;;;13.68;8.43;;;5.30;99.90;;;;;;4860773;29;20049;-80
2022/04/17 00:04:28;;;;;;;15.30;8.40;;;5.30;99.90;;;;;;4861496;29;20052;-79
2022/04/17 00:06:54;;;;;;;14.50;7.93;;;5.20;99.90;;;;;;4860463;29;20052;-79
2022/04/17 00:09:20;;;;;;;14.40;8.32;;;5.20;99.90;;;;;;4845878;29;20485;-79
2022/04/17 00:11:46;;;;;;;16.02;7.85;;;5.10;99.90;;;;;;4861406;29;20072;-79
2022/04/17 00:14:12;;;;;;;19.50;8.20;;;5.50;99.90;;;;;;4844114;29;20057;-79
2022/04/17 00:16:40;;;;;;;12.48;7.30;;;5.10;99.90;;;;;;4846326;29;20049;-80
2022/04/17 00:19:07;;;;;;;13.07;7.18;;;5.00;99.90;;;;;;4875732;29;20750;-80
2022/04/17 00:21:33;;;;;;;15.15;8.15;;;5.00;99.90;;;;;;4877240;29;20123;-79
2022/04/17 00:23:59;;;;;;;15.88;8.23;;;5.00;99.90;;;;;;4845442;29;20466;-79
2022/04/17 00:26:24;;;;;;;15.68;8.05;;;4.90;99.90;;;;;;4875585;29;20521;-79
2022/04/17 00:28:50;;;;;;;14.63;7.82;;;5.00;99.90;;;;;;4859952;29;20080;-81
2022/04/17 00:31:16;;;;;;;12.43;7.55;;;4.80;99.90;;;;;;4861015;29;20128;-79
2022/04/17 00:33:42;;;;;;;14.40;8.70;;;5.20;99.90;;;;;;4876171;29;20060;-80
2022/04/17 00:36:07;;;;;;;14.48;8.57;;;4.80;99.90;;;;;;4876016;29;20445;-79
2022/04/17 00:38:33;;;;;;;13.82;8.48;;;4.70;99.90;;;;;;4876078;29;20500;-79
2022/04/17 00:40:59;;;;;;;12.48;7.88;;;4.70;99.90;;;;;;4875233;29;20049;-79
2022/04/17 00:43:30;;;;;;;12.85;8.07;;;4.70;99.90;;;;;;4861262;29;20057;-80
2022/04/17 00:45:56;;;;;;;15.88;7.57;;;4.60;99.90;;;;;;4872245;29;20124;-79
2022/04/17 00:48:22;;;;;;;14.88;8.63;;;4.60;99.90;;;;;;4844787;29;20124;-79
2022/04/17 00:50:51;;;;;;;14.55;8.40;;;4.50;99.90;;;;;;4860419;29;20767;-80
2022/04/17 00:53:18;;;;;;;15.38;8.30;;;4.50;99.90;;;;;;4860990;29;20513;-79
2022/04/17 00:55:46;;;;;;;13.63;8.10;;;4.40;99.90;;;;;;4860205;29;20096;-80
2022/04/17 00:58:13;;;;;;;13.75;8.60;;;4.50;99.90;;;;;;4845529;29;20049;-79
2022/04/17 01:00:40;;;;;;;17.35;11.52;;;4.30;99.90;;;;;;4859519;29;20066;-79
2022/04/17 01:03:06;;;;;;;15.48;9.60;;;4.30;99.90;;;;;;4859054;29;20061;-79
2022/04/17 01:05:32;;;;;;;18.83;12.30;;;4.30;99.90;;;;;;4860069;29;20049;-79
2022/04/17 01:07:58;;;;;;;22.15;13.20;;;4.30;99.90;;;;;;4860419;29;20053;-80
2022/04/17 01:10:24;;;;;;;21.35;13.38;;;4.20;99.90;;;;;;4859342;29;20056;-80
2022/04/17 01:12:53;;;;;;;24.17;14.00;;;4.20;99.90;;;;;;4859591;29;20061;-79
2022/04/17 01:15:19;;;;;;;22.50;13.80;;;4.20;99.90;;;;;;4875303;29;20052;-80
2022/04/17 01:17:45;;;;;;;19.23;11.88;;;4.10;99.90;;;;;;4858813;29;20058;-80
2022/04/17 01:20:12;;;;;;;16.70;10.75;;;4.10;99.90;;;;;;4860435;29;20049;-79
2022/04/17 01:22:44;;;;;;;17.75;11.23;;;4.10;99.90;;;;;;4859410;29;20149;-80
2022/04/17 01:27:54;;;;;;;17.35;11.38;;;4.00;99.90;;;;;;4860035;29;20108;-79
2022/04/17 01:30:20;;;;;;;17.83;12.07;;;3.90;99.90;;;;;;4858752;29;20514;-79
2022/04/17 01:32:46;;;;;;;19.83;12.57;;;3.90;99.90;;;;;;4875060;29;20564;-80
2022/04/17 01:35:11;;;;;;;29.60;13.32;;;3.80;99.90;;;;;;4859752;29;20049;-79
2022/04/17 01:37:37;;;;;;;21.30;12.40;;;3.90;99.90;;;;;;4859963;29;20049;-79
2022/04/17 01:40:03;;;;;;;20.15;11.60;;;3.70;99.90;;;;;;4859726;29;20409;-79
2022/04/17 01:42:28;;;;;;;19.88;12.43;;;3.70;99.90;;;;;;4875287;29;20092;-79
2022/04/17 01:44:54;;;;;;;29.88;13.05;;;3.60;99.90;;;;;;4858769;29;20140;-79
2022/04/17 01:47:20;;;;;;;16.77;11.23;;;3.60;99.90;;;;;;4860075;29;20450;-80
2022/04/17 01:49:45;;;;;;;20.02;12.48;;;3.60;99.90;;;;;;4859281;29;20053;-79
2022/04/17 01:52:11;;;;;;;18.67;12.45;;;3.60;99.90;;;;;;4859505;29;20056;-79
2022/04/17 01:54:37;;;;;;;18.13;12.40;;;3.60;99.90;;;;;;4859689;29;20057;-79
2022/04/17 01:57:03;;;;;;;19.33;12.07;;;3.60;99.90;;;;;;4859465;29;20053;-79
2022/04/17 01:59:29;;;;;;;19.65;12.68;;;3.60;99.90;;;;;;4858183;29;20049;-79
2022/04/17 02:01:55;;;;;;;22.50;13.27;;;3.60;99.90;;;;;;4859265;29;20049;-79
2022/04/17 02:04:21;;;;;;;19.45;11.18;;;3.60;99.90;;;;;;4859728;29;20049;-80
2022/04/17 02:06:47;;;;;;;18.80;12.60;;;3.60;99.90;;;;;;4858092;29;20049;-79
2022/04/17 02:09:15;;;;;;;18.90;12.43;;;3.60;99.90;;;;;;4859815;29;20061;-80
2022/04/17 02:11:42;;;;;;;19.45;13.55;;;3.60;99.90;;;;;;4858481;29;20132;-79
2022/04/17 02:14:09;;;;;;;19.35;13.27;;;3.60;99.90;;;;;;4857492;29;20054;-80
2022/04/17 02:16:35;;;;;;;22.15;15.10;;;3.50;99.90;;;;;;4859755;29;20041;-79
2022/04/17 02:19:02;;;;;;;23.42;14.98;;;3.40;99.90;;;;;;4858225;29;20171;-79
2022/04/17 02:21:28;;;;;;;23.27;14.27;;;3.40;99.90;;;;;;4859884;29;20049;-79
2022/04/17 02:23:54;;;;;;;17.42;11.93;;;3.40;99.90;;;;;;4858605;29;20045;-79
2022/04/17 02:26:20;;;;;;;19.15;12.00;;;3.40;99.90;;;;;;4858926;29;20105;-79
2022/04/17 02:28:46;;;;;;;16.85;11.27;;;3.30;99.90;;;;;;4858558;29;20080;-78
2022/04/17 02:31:12;;;;;;;16.15;11.27;;;3.30;99.90;;;;;;4858993;29;20049;-79
2022/04/17 02:33:39;;;;;;;17.25;10.57;;;3.30;99.90;;;;;;4873788;29;20044;-79
2022/04/17 02:36:06;;;;;;;20.00;10.30;;;3.30;99.90;;;;;;4857890;29;20661;-79
2022/04/17 02:38:32;;;;;;;16.38;11.00;;;3.30;99.90;;;;;;4858817;29;20064;-79
2022/04/17 02:40:58;;;;;;;18.67;12.43;;;3.30;99.90;;;;;;4857019;29;20577;-79
2022/04/17 02:43:23;;;;;;;20.17;14.40;;;3.30;99.90;;;;;;4874737;29;20140;-79
2022/04/17 02:45:50;;;;;;;23.25;15.25;;;3.30;99.90;;;;;;4857439;29;20049;-79
2022/04/17 02:48:16;;;;;;;26.02;16.02;;;3.30;99.90;;;;;;4858291;29;20494;-79
2022/04/17 02:50:42;;;;;;;21.13;15.10;;;3.20;99.90;;;;;;4858963;29;20053;-79
2022/04/17 02:53:08;;;;;;;24.27;14.45;;;3.20;99.90;;;;;;4858191;29;20067;-79
2022/04/17 02:55:33;;;;;;;18.27;13.18;;;3.20;99.90;;;;;;4873166;29;20159;-79
2022/04/17 02:57:59;;;;;;;18.00;12.02;;;3.10;99.90;;;;;;4858095;29;20076;-79
2022/04/17 03:00:26;;;;;;;16.63;10.00;;;3.10;99.90;;;;;;4857325;29;20057;-79
2022/04/17 03:05:37;;;;;;;18.48;10.88;;;3.10;99.90;;;;;;4858467;29;20049;-79
2022/04/17 03:08:10;;;;;;;17.15;10.25;;;3.00;99.90;;;;;;4856843;29;20391;-79
2022/04/17 03:10:38;;;;;;;14.30;9.95;;;2.90;99.90;;;;;;4858386;29;20063;-79
2022/04/17 03:13:05;;;;;;;15.73;10.15;;;2.90;99.90;;;;;;4857916;29;20589;-79
2022/04/17 03:15:32;;;;;;;17.60;10.10;;;2.90;99.90;;;;;;4857441;29;20044;-79
2022/04/17 03:17:58;;;;;;;18.20;10.65;;;2.90;99.90;;;;;;4857732;29;20041;-79
2022/04/17 03:20:25;;;;;;;17.88;10.95;;;2.90;99.90;;;;;;4858245;29;20085;-79
2022/04/17 03:22:51;;;;;;;16.45;10.73;;;2.90;99.90;;;;;;4857011;29;20464;-79
2022/04/17 03:25:17;;;;;;;21.25;13.10;;;2.80;99.90;;;;;;4858074;29;20132;-79
2022/04/17 03:27:46;;;;;;;21.98;12.98;;;2.80;99.90;;;;;;4873824;29;20037;-80
2022/04/17 03:30:14;;;;;;;22.27;13.50;;;2.80;99.90;;;;;;4857441;29;20033;-79
2022/04/17 03:32:41;;;;;;;20.38;14.52;;;2.80;99.90;;;;;;4858271;29;20105;-79
2022/04/17 03:35:07;;;;;;;21.27;15.50;;;2.80;99.90;;;;;;4857476;29;20051;-79
2022/04/17 03:37:33;;;;;;;25.08;16.88;;;2.80;99.90;;;;;;4857615;29;20056;-79
2022/04/17 03:39:59;;;;;;;24.95;16.65;;;2.80;99.90;;;;;;4872695;29;20052;-79
2022/04/17 03:42:25;;;;;;;24.88;17.70;;;2.70;99.90;;;;;;4858692;29;20487;-79
2022/04/17 03:44:50;;;;;;;24.77;18.50;;;2.70;99.90;;;;;;4856038;29;20084;-79
2022/04/17 03:47:16;;;;;;;28.00;19.70;;;2.60;99.90;;;;;;4857880;29;20095;-79
2022/04/17 03:49:43;;;;;;;33.28;21.70;;;2.70;99.90;;;;;;4857688;29;20049;-79
2022/04/17 03:52:08;;;;;;;34.55;23.10;;;2.60;99.90;;;;;;4856212;29;20458;-78
2022/04/17 03:54:34;;;;;;;32.70;22.70;;;2.60;99.90;;;;;;4857524;29;20055;-79
2022/04/17 03:57:00;;;;;;;35.25;24.38;;;2.60;99.90;;;;;;4857152;29;20064;-79
2022/04/17 03:59:25;;;;;;;32.88;23.73;;;2.50;99.90;;;;;;4871606;29;20063;-79
2022/04/17 04:01:51;;;;;;;38.25;26.30;;;2.50;99.90;;;;;;4872498;29;20131;-79
2022/04/17 04:04:18;;;;;;;38.88;26.25;;;2.60;99.90;;;;;;4856810;29;20049;-78
2022/04/17 04:06:44;;;;;;;35.17;25.38;;;2.60;99.90;;;;;;4857815;29;20045;-79
2022/04/17 04:09:10;;;;;;;37.58;26.88;;;2.60;99.90;;;;;;4872330;29;20116;-79
2022/04/17 04:11:35;;;;;;;38.47;26.98;;;2.60;99.90;;;;;;4856748;29;20136;-79
2022/04/17 04:14:03;;;;;;;38.20;26.08;;;2.60;99.90;;;;;;4859362;29;20112;-78
2022/04/17 04:16:29;;;;;;;38.75;26.75;;;2.60;99.90;;;;;;4876328;29;20041;-79
2022/04/17 04:18:54;;;;;;;40.80;27.33;;;2.50;99.90;;;;;;4859526;29;20519;-79
2022/04/17 04:21:20;;;;;;;36.55;25.38;;;2.50;99.90;;;;;;4860232;29;20048;-79
2022/04/17 04:23:46;;;;;;;33.80;25.23;;;2.40;99.90;;;;;;4875645;29;20200;-80
2022/04/17 04:26:11;;;;;;;37.55;25.35;;;2.40;99.90;;;;;;4858406;29;20060;-79
2022/04/17 04:28:37;;;;;;;39.20;26.60;;;2.40;99.90;;;;;;4857111;29;20139;-80
2022/04/17 04:31:06;;;;;;;40.78;26.77;;;2.40;99.90;;;;;;4856407;29;20053;-79
2022/04/17 04:33:33;;;;;;;34.67;24.92;;;2.30;99.90;;;;;;4855398;29;20044;-79
2022/04/17 04:35:59;;;;;;;37.38;27.23;;;2.30;99.90;;;;;;4875376;29;20049;-80
2022/04/17 04:38:26;;;;;;;36.88;26.45;;;2.30;99.90;;;;;;4861376;29;20139;-80
2022/04/17 04:40:52;;;;;;;34.97;25.35;;;2.20;99.90;;;;;;4862969;29;20039;-79
2022/04/17 04:43:17;;;;;;;45.90;27.55;;;2.20;99.90;;;;;;4879979;29;20430;-79
2022/04/17 04:51:13;;;;;;;38.10;26.10;;;2.30;99.90;;;;;;4879239;29;20107;-80
2022/04/17 04:53:39;;;;;;;39.20;26.00;;;2.30;99.90;;;;;;4863235;29;20485;-80
2022/04/17 04:56:05;;;;;;;39.75;27.00;;;2.20;99.90;;;;;;4854067;29;20049;-79
2022/04/17 04:58:31;;;;;;;40.33;27.10;;;2.20;99.90;;;;;;4868409;29;20053;-78
2022/04/17 05:00:57;;;;;;;42.22;27.50;;;2.30;99.90;;;;;;4842730;29;20109;-79
2022/04/17 05:03:23;;;;;;;49.40;27.58;;;2.30;99.90;;;;;;4854911;29;20180;-79
2022/04/17 05:05:48;;;;;;;39.15;25.73;;;2.30;99.90;;;;;;4859703;29;20049;-79
2022/04/17 05:08:14;;;;;;;37.03;26.33;;;2.30;99.90;;;;;;4874748;29;20132;-79
2022/04/17 05:10:40;;;;;;;40.00;25.95;;;2.30;99.90;;;;;;4870715;29;20076;-79
2022/04/17 05:13:05;;;;;;;36.58;25.92;;;2.30;99.90;;;;;;4869237;29;20061;-78
2022/04/17 05:15:31;;;;;;;37.35;26.05;;;2.40;99.90;;;;;;4843651;29;20045;-79
2022/04/17 05:17:57;;;;;;;37.60;26.10;;;2.40;99.90;;;;;;4859837;29;20048;-79
2022/04/17 05:20:22;;;;;;;44.25;26.70;;;2.50;99.90;;;;;;4860141;29;20060;-79
2022/04/17 05:22:56;;;;;;;42.13;25.45;;;2.60;99.90;;;;;;4859421;29;20579;-79
2022/04/17 05:25:22;;;;;;;;;;;2.70;99.90;;;;;;4844864;29;20513;-79
2022/04/17 05:27:47;;;;;;;37.50;24.27;;;2.80;99.90;;;;;;4859745;29;19931;-79
2022/04/17 05:30:13;;;;;;;35.92;23.42;;;2.90;99.90;;;;;;4842889;29;20041;-79
2022/04/17 05:32:39;;;;;;;31.45;22.35;;;3.00;99.90;;;;;;4844735;29;20045;-79
2022/04/17 05:35:05;;;;;;;33.03;21.13;;;3.00;99.90;;;;;;4843850;29;20060;-79
2022/04/17 05:37:31;;;;;;;29.92;21.13;;;3.20;99.90;;;;;;4850867;29;20087;-79
2022/04/17 05:39:56;;;;;;;29.00;20.40;;;3.30;99.90;;;;;;4862306;29;20097;-79
2022/04/17 05:42:22;;;;;;;28.83;20.88;;;3.40;99.90;;;;;;4878541;29;20092;-79
2022/04/17 05:44:49;;;;;;;30.92;20.20;;;3.50;99.90;;;;;;4876510;29;20131;-79
2022/04/17 05:47:15;;;;;;;28.52;20.13;;;3.60;99.90;;;;;;4878369;29;20397;-79
2022/04/17 05:49:41;;;;;;;27.50;19.45;;;3.70;99.90;;;;;;4877914;29;20048;-79
2022/04/17 05:52:06;;;;;;;28.13;19.20;;;3.80;99.90;;;;;;4859416;29;20529;-80
2022/04/17 05:54:32;;;;;;;26.35;19.17;;;3.90;99.90;;;;;;4859639;29;20037;-79
2022/04/17 05:56:59;;;;;;;30.17;18.45;;;4.10;99.90;;;;;;4859349;29;20049;-79
2022/04/17 05:59:25;;;;;;;25.80;18.10;;;4.20;99.90;;;;;;4868873;29;20050;-79
2022/04/17 06:01:51;;;;;;;28.13;17.67;;;4.30;99.90;;;;;;4877550;29;20139;-79
2022/04/17 06:04:16;;;;;;;26.95;17.20;;;4.40;99.90;;;;;;4877757;29;20177;-79
2022/04/17 06:06:42;;;;;;;27.73;15.57;;;4.60;99.90;;;;;;4862624;29;20045;-79
2022/04/17 06:09:08;;;;;;;24.88;16.98;;;5.10;99.90;;;;;;4877675;29;20052;-79
2022/04/17 06:11:34;;;;;;;25.02;15.93;;;4.80;99.90;;;;;;4877565;29;20056;-79
2022/04/17 06:14:00;;;;;;;26.15;15.48;;;5.00;99.90;;;;;;4871163;29;20052;-80
2022/04/17 06:16:26;;;;;;;27.88;16.13;;;5.10;99.90;;;;;;4864433;29;20532;-79
2022/04/17 06:18:51;;;;;;;26.25;15.57;;;5.20;99.90;;;;;;4857521;29;20053;-80
2022/04/17 06:21:18;;;;;;;22.83;15.32;;;5.80;99.90;;;;;;4859951;29;20117;-79
2022/04/17 06:23:44;;;;;;;22.13;14.73;;;5.70;99.90;;;;;;4859895;29;20137;-79
2022/04/17 06:26:10;;;;;;;23.95;15.45;;;5.50;99.90;;;;;;4858284;29;20093;-79
2022/04/17 06:28:36;;;;;;;24.67;15.82;;;6.30;99.90;;;;;;4859786;29;20061;-79
2022/04/17 06:31:03;;;;;;;21.55;14.18;;;5.70;99.90;;;;;;4857702;29;20049;-79
2022/04/17 06:33:29;;;;;;;25.20;14.57;;;5.90;99.90;;;;;;4858467;29;20064;-79
2022/04/17 06:35:55;;;;;;;24.52;14.80;;;6.00;99.90;;;;;;4858387;29;20056;-79
2022/04/17 06:38:21;;;;;;;21.77;14.40;;;6.60;99.90;;;;;;4858936;29;20057;-79
2022/04/17 06:40:47;;;;;;;24.13;13.70;;;6.20;99.90;;;;;;4857575;29;20485;-79
2022/04/17 06:43:13;;;;;;;24.38;14.20;;;6.40;99.90;;;;;;4879503;29;20132;-79
2022/04/17 06:45:41;;;;;;;24.65;14.32;;;6.30;99.90;;;;;;4873764;29;20749;-81
2022/04/17 06:48:13;;;;;;;22.67;13.70;;;6.50;99.90;;;;;;4866570;29;20521;-81
2022/04/17 06:50:39;;;;;;;19.98;13.38;;;6.50;99.90;;;;;;4876423;29;20524;-82
2022/04/17 06:53:05;;;;;;;24.08;13.75;;;6.70;99.90;;;;;;4873095;29;20048;-81
2022/04/17 06:55:30;;;;;;;20.38;13.38;;;6.80;99.90;;;;;;4868697;29;20512;-82
2022/04/17 06:57:56;;;;;;;23.95;13.35;;;6.80;99.90;;;;;;4847922;29;20062;-85
2022/04/17 07:00:22;;;;;;;23.02;13.65;;;6.90;99.90;;;;;;4859781;29;20058;-81
2022/04/17 07:02:48;;;;;;;19.65;12.73;;;7.10;99.90;;;;;;4861326;29;20473;-82
2022/04/17 07:05:15;;;;;;;24.80;12.75;;;7.20;99.90;;;;;;4876703;29;20116;-82
2022/04/17 07:07:41;;;;;;;19.40;12.40;;;7.30;99.90;;;;;;4860683;29;20052;-81
2022/04/17 07:10:08;;;;;;;20.00;11.95;;;7.60;99.90;;;;;;4872116;29;20059;-82
2022/04/17 07:12:34;;;;;;;19.17;13.15;;;7.50;99.90;;;;;;4869161;29;20092;-79
2022/04/17 07:15:05;;;;;;;19.50;12.20;;;7.60;99.90;;;;;;4865716;29;20058;-81
2022/04/17 07:17:37;;;;;;;18.90;11.82;;;7.80;99.90;;;;;;4870762;29;20044;-82
2022/04/17 07:20:06;;;;;;;19.73;11.65;;;7.90;99.90;;;;;;4869342;29;20049;-82
2022/04/17 07:22:33;;;;;;;18.55;10.85;;;8.00;99.90;;;;;;4850901;29;20060;-82
2022/04/17 07:25:01;;;;;;;17.08;11.00;;;8.10;99.90;;;;;;4856844;29;20060;-82
2022/04/17 07:27:27;;;;;;;16.27;9.95;;;8.70;99.90;;;;;;4862645;29;20143;-81
2022/04/17 07:29:53;;;;;;;15.45;10.80;;;8.40;99.90;;;;;;4867964;29;20099;-82
2022/04/17 07:32:19;;;;;;;16.60;10.25;;;8.50;99.90;;;;;;4846561;29;20045;-82
2022/04/17 07:34:45;;;;;;;14.82;9.38;;;8.60;99.90;;;;;;4868634;29;20108;-82
2022/04/17 07:37:11;;;;;;;17.95;9.27;;;8.70;99.90;;;;;;4859538;29;20037;-81
2022/04/17 07:39:37;;;;;;;14.45;9.60;;;9.20;99.90;;;;;;4855602;29;20457;-81
2022/04/17 07:42:03;;;;;;;13.80;9.10;;;8.90;99.90;;;;;;4860212;29;20048;-82
2022/04/17 07:44:32;;;;;;;17.55;9.95;;;9.00;99.90;;;;;;4863287;29;20080;-82
2022/04/17 07:46:58;;;;;;;11.90;8.50;;;9.10;99.90;;;;;;4871326;29;20532;-81
2022/04/17 07:49:26;;;;;;;14.07;9.13;;;9.50;99.90;;;;;;4851726;29;20037;-82
2022/04/17 07:51:52;;;;;;;14.57;9.30;;;9.30;99.90;;;;;;4856908;29;20091;-83
2022/04/17 07:54:18;;;;;;;14.63;8.93;;;9.70;99.90;;;;;;4855248;29;20100;-83
2022/04/17 07:56:43;;;;;;;13.15;8.30;;;9.70;99.90;;;;;;4855495;29;20044;-83
2022/04/17 07:59:09;;;;;;;10.95;7.53;;;9.60;99.90;;;;;;4854749;29;20508;-82
2022/04/17 08:01:39;;;;;;;11.73;7.90;;;10.20;99.90;;;;;;4842335;29;20045;-81
2022/04/17 08:04:05;;;;;;;12.13;8.27;;;9.80;99.90;;;;;;4847395;29;20049;-82
2022/04/17 08:06:31;;;;;;;13.90;7.90;;;10.00;99.90;;;;;;4869107;29;20059;-82
2022/04/17 08:08:57;;;;;;;12.07;7.93;;;9.90;99.90;;;;;;4870423;29;20111;-82
2022/04/17 08:11:23;;;;;;;12.13;7.68;;;9.90;99.90;;;;;;4860176;29;20052;-82
2022/04/17 08:13:49;;;;;;;13.57;7.88;;;10.00;99.90;;;;;;4858571;29;20048;-82
2022/04/17 08:16:17;;;;;;;12.20;8.30;;;10.30;99.90;;;;;;4882077;29;20043;-82
2022/04/17 08:18:43;;;;;;;13.50;8.40;;;10.70;99.90;;;;;;4876469;29;20050;-82
2022/04/17 08:21:09;;;;;;;12.73;8.70;;;11.20;99.90;;;;;;4880610;29;20131;-82
2022/04/17 08:23:37;;;;;;;15.05;9.65;;;10.60;99.90;;;;;;4872534;29;20453;-82
2022/04/17 08:26:05;;;;;;;11.90;7.60;;;10.40;99.90;;;;;;4889907;29;20041;-82
2022/04/17 08:28:31;;;;;;;12.75;7.97;;;10.40;99.90;;;;;;4873031;29;20055;-82
2022/04/17 08:30:57;;;;;;;14.85;8.15;;;10.40;99.90;;;;;;4878044;29;20064;-82
2022/04/17 08:33:24;;;;;;;13.38;7.68;;;10.50;99.90;;;;;;4888611;29;20054;-82
2022/04/17 08:35:50;;;;;;;15.57;8.40;;;10.60;99.90;;;;;;4879414;29;20040;-82
2022/04/17 08:38:19;;;;;;;13.75;7.38;;;10.80;99.90;;;;;;4886866;29;20525;-82
2022/04/17 08:40:45;;;;;;;11.95;7.13;;;10.80;99.90;;;;;;4875900;29;20076;-80
2022/04/17 08:43:11;;;;;;;10.93;6.13;;;10.90;99.90;;;;;;4874445;29;20045;-81
2022/04/17 08:45:37;;;;;;;11.02;6.60;;;11.00;99.90;;;;;;4878354;29;20411;-81
2022/04/17 08:48:04;;;;;;;11.02;6.43;;;11.10;99.90;;;;;;4892455;29;20050;-81
2022/04/17 08:50:31;;;;;;;9.98;6.00;;;11.10;99.90;;;;;;4892292;29;20501;-80
2022/04/17 08:52:58;;;;;;;9.77;5.78;;;11.20;99.90;;;;;;4888110;29;20161;-80
2022/04/17 08:55:24;;;;;;;14.13;6.30;;;11.20;99.90;;;;;;4890468;29;20103;-81
2022/04/17 08:57:50;;;;;;;11.80;6.40;;;11.70;99.90;;;;;;4875931;29;20036;-80
2022/04/17 09:00:17;;;;;;;11.90;6.32;;;12.00;99.90;;;;;;4893926;29;20327;-81
2022/04/17 09:02:43;;;;;;;10.77;6.20;;;11.50;99.90;;;;;;4893020;29;20465;-81
2022/04/17 09:05:12;;;;;;;9.90;5.13;;;11.70;99.90;;;;;;4876283;29;20052;-80
2022/04/17 09:07:47;;;;;;;9.52;5.85;;;11.80;99.90;;;;;;4876186;29;20055;-81
2022/04/17 09:10:23;;;;;;;10.30;6.40;;;11.80;99.90;;;;;;4891398;29;20099;-81
2022/04/17 09:12:52;;;;;;;12.60;5.68;;;12.00;99.90;;;;;;4863770;29;20485;-81
2022/04/17 09:15:21;;;;;;;9.30;4.90;;;12.20;99.90;;;;;;4856636;29;20085;-76
2022/04/17 09:17:47;;;;;;;9.27;4.97;;;12.10;99.90;;;;;;4863827;29;20245;-78
2022/04/17 09:20:19;;;;;;;8.52;5.07;;;12.20;99.90;;;;;;4887047;29;20082;-78
2022/04/17 09:22:54;;;;;;;9.88;5.60;;;12.20;99.40;;;;;;4882872;29;20063;-78
2022/04/17 09:25:27;;;;;;;9.05;5.47;;;12.20;99.80;;;;;;4878386;29;20075;-78
2022/04/17 09:27:56;;;;;;;;;;;12.30;99.90;;;;;;4871852;29;20503;-79
2022/04/17 09:30:26;;;;;;;12.25;5.40;;;12.40;99.90;;;;;;4875571;29;19923;-78
2022/04/17 09:32:52;;;;;;;9.80;5.53;;;12.50;99.90;;;;;;4891418;29;20091;-77
2022/04/17 09:35:23;;;;;;;9.50;5.88;;;12.70;99.90;;;;;;4892976;29;20037;-80
2022/04/17 09:37:53;;;;;;;8.82;6.07;;;12.70;99.90;;;;;;4873166;29;20043;-83
2022/04/17 09:40:20;;;;;;;9.80;5.57;;;12.70;99.90;;;;;;4888166;29;20048;-78
2022/04/17 09:42:48;;;;;;;6.35;4.18;;;12.80;99.90;;;;;;4862051;29;20164;-81
2022/04/17 09:45:14;;;;;;;7.53;4.80;;;12.90;99.90;;;;;;4873006;29;20402;-78
2022/04/17 09:47:40;;;;;;;7.32;4.63;;;13.00;99.80;;;;;;4877653;29;20048;-77
2022/04/17 09:50:07;;;;;;;9.05;5.38;;;13.00;99.60;;;;;;4869493;29;20092;-78
2022/04/17 09:52:45;;;;;;;7.63;4.80;;;13.10;98.30;;;;;;4852039;29;20045;-77
2022/04/17 09:55:12;;;;;;;8.48;5.13;;;13.10;99.10;;;;;;4878312;29;20712;-77
2022/04/17 09:57:39;;;;;;;8.48;5.15;;;13.20;98.80;;;;;;4868310;29;20041;-77
2022/04/17 10:00:07;;;;;;;6.25;3.97;;;13.60;99.50;;;;;;4865428;29;20057;-79
2022/04/17 10:02:33;;;;;;;6.00;3.78;;;13.40;97.60;;;;;;4864957;29;20041;-77
2022/04/17 10:05:00;;;;;;;5.70;3.80;;;13.40;94.10;;;;;;4870389;29;20517;-78
2022/04/17 10:07:27;;;;;;;6.57;3.50;;;13.50;92.20;;;;;;4863593;29;20049;-76
2022/04/17 10:09:53;;;;;;;8.88;4.25;;;13.60;92.30;;;;;;4852854;29;20049;-77
2022/04/17 10:12:20;;;;;;;7.25;3.78;;;13.60;91.30;;;;;;4868989;29;20056;-77
2022/04/17 10:14:49;;;;;;;6.97;4.20;;;13.70;89.90;;;;;;4846112;29;20409;-77
2022/04/17 10:17:19;;;;;;;9.48;4.18;;;13.90;90.00;;;;;;4853558;29;20037;-77
2022/04/17 10:19:46;;;;;;;8.02;4.35;;;13.80;88.70;;;;;;4860749;29;20124;-77
2022/04/17 10:22:12;;;;;;;6.70;4.05;;;13.90;90.00;;;;;;4886620;29;20057;-77
2022/04/17 10:24:41;;;;;;;7.88;4.68;;;14.10;91.70;;;;;;4857551;29;20059;-77
2022/04/17 10:27:12;;;;;;;8.27;5.05;;;14.00;91.10;;;;;;4873369;29;20060;-78
2022/04/17 10:29:38;;;;;;;7.45;4.78;;;14.10;90.20;;;;;;4857304;29;20056;-77
2022/04/17 10:32:32;;;;;;;7.57;4.63;;;14.10;88.20;;;;;;4864266;29;20653;-78
2022/04/17 10:35:05;;;;;;;;;;;14.20;87.00;;;;;;4859219;29;20085;-77
2022/04/17 10:37:55;;;;;;;7.43;4.75;;;14.20;91.10;;;;;;4869394;29;20002;-80
2022/04/17 10:40:22;;;;;;;6.53;4.35;;;14.30;92.00;;;;;;4849994;29;20053;-82
2022/04/17 10:42:56;;;;;;;10.45;4.32;;;14.50;91.10;;;;;;4857805;29;20052;-81
2022/04/17 10:45:22;;;;;;;8.15;4.28;;;14.50;88.20;;;;;;4858412;29;20048;-82
2022/04/17 10:48:09;;;;;;;8.43;4.63;;;14.60;90.80;;;;;;4866274;29;20052;-81
2022/04/17 10:50:42;;;;;;;7.35;4.43;;;14.80;91.60;;;;;;4860387;29;20196;-79
2022/04/17 10:53:25;;;;;;;7.20;4.10;;;14.90;91.30;;;;;;4857227;29;20061;-79
2022/04/17 10:56:06;;;;;;;6.10;3.67;;;15.00;87.50;;;;;;4852682;29;20417;-79
2022/04/17 10:58:35;;;;;;;6.43;4.00;;;15.10;89.00;;;;;;4858166;29;20057;-79
2022/04/17 11:01:01;;;;;;;6.82;3.83;;;15.10;82.40;;;;;;4860542;29;20080;-79
2022/04/17 11:03:27;;;;;;;6.32;3.65;;;15.10;82.60;;;;;;4842717;29;20525;-79
2022/04/17 11:06:09;;;;;;;6.50;4.00;;;15.20;81.80;;;;;;4868085;29;20127;-77
2022/04/17 11:08:56;;;;;;;6.75;3.35;;;15.10;82.00;;;;;;4861838;29;20048;-80
2022/04/17 11:11:22;;;;;;;7.45;4.00;;;15.20;80.10;;;;;;4865900;29;20119;-76
2022/04/17 11:14:09;;;;;;;5.65;3.33;;;15.30;81.70;;;;;;4867074;29;20059;-79
2022/04/17 11:16:48;;;;;;;8.18;4.25;;;15.30;79.10;;;;;;4863392;29;20056;-77
2022/04/17 11:19:17;;;;;;;8.25;4.22;;;15.40;81.30;;;;;;4858739;29;20127;-81
2022/04/17 11:21:46;;;;;;;8.50;3.95;;;15.50;83.10;;;;;;4872358;29;20045;-81
2022/04/17 11:24:12;;;;;;;7.72;3.90;;;15.60;80.40;;;;;;4860690;29;20088;-81
2022/04/17 11:26:52;;;;;;;6.95;4.15;;;15.70;79.20;;;;;;4861567;29;20140;-81
2022/04/17 11:29:47;;;;;;;5.35;3.28;;;15.80;75.30;;;;;;4875257;29;20052;-81
2022/04/17 11:32:16;;;;;;;7.05;3.70;;;15.80;78.40;;;;;;4877023;29;20434;-81
2022/04/17 11:34:43;;;;;;;6.65;3.28;;;15.90;76.20;;;;;;4860524;29;20136;-81
2022/04/17 11:37:10;;;;;;;6.55;3.40;;;16.00;71.60;;;;;;4860718;29;20060;-82
2022/04/17 11:39:38;;;;;;;7.25;3.28;;;15.80;68.10;;;;;;4861018;29;20489;-82
2022/04/17 11:42:05;;;;;;;6.90;3.60;;;15.90;69.90;;;;;;4875697;29;20464;-82
2022/04/17 11:44:33;;;;;;;6.78;3.00;;;15.90;69.00;;;;;;4875833;29;20052;-82
2022/04/17 11:46:58;;;;;;;6.00;3.40;;;16.00;67.30;;;;;;4876232;29;20052;-82
2022/04/17 11:49:24;;;;;;;8.65;3.45;;;16.00;67.60;;;;;;4859856;29;20098;-82
2022/04/17 11:51:50;;;;;;;6.50;3.00;;;16.10;67.50;;;;;;4857249;29;20108;-82
2022/04/17 11:54:34;;;;;;;6.95;3.50;;;16.10;68.80;;;;;;4857820;29;20049;-82
2022/04/17 11:57:00;;;;;;;6.00;3.47;;;16.20;66.20;;;;;;4856664;29;20508;-82
2022/04/17 11:59:26;;;;;;;6.75;3.53;;;16.30;66.50;;;;;;4841862;29;20492;-82
2022/04/17 12:02:16;;;;;;;6.63;3.38;;;16.30;66.00;;;;;;4857447;29;20505;-82
2022/04/17 12:04:44;;;;;;;6.18;3.67;;;16.40;65.30;;;;;;4841223;29;20073;-82
2022/04/17 12:07:11;;;;;;;7.72;3.15;;;16.30;64.60;;;;;;4842447;29;20627;-82
2022/04/17 12:09:38;;;;;;;7.00;3.40;;;16.30;64.70;;;;;;4856565;29;20049;-82
2022/04/17 12:12:10;;;;;;;7.78;4.15;;;16.30;65.60;;;;;;4857180;29;20061;-82
2022/04/17 12:14:35;;;;;;;6.80;4.13;;;16.40;66.70;;;;;;4856544;29;20483;-83
2022/04/17 12:17:01;;;;;;;6.90;3.65;;;16.50;66.00;;;;;;4841158;29;20389;-82
2022/04/17 12:19:27;;;;;;;5.93;3.50;;;16.60;67.50;;;;;;4857528;29;20068;-82
2022/04/17 12:21:53;;;;;;;9.65;4.43;;;16.60;66.60;;;;;;4841323;29;20434;-82
2022/04/17 12:24:21;;;;;;;7.47;3.90;;;16.70;66.40;;;;;;4841531;29;20494;-81
2022/04/17 12:26:48;;;;;;;7.20;4.78;;;16.70;66.40;;;;;;4857101;29;20049;-82
2022/04/17 12:29:15;;;;;;;7.30;4.10;;;16.80;67.30;;;;;;4841799;29;20071;-82
2022/04/17 12:31:41;;;;;;;5.70;3.72;;;16.90;66.60;;;;;;4841243;29;20087;-82
2022/04/17 12:34:09;;;;;;;6.22;3.60;;;16.90;66.00;;;;;;4841562;29;20164;-82
2022/04/17 12:36:40;;;;;;;7.13;3.88;;;17.00;66.40;;;;;;4842386;29;20469;-83
2022/04/17 12:39:07;;;;;;;6.35;4.10;;;17.10;66.40;;;;;;4840747;29;20139;-83
2022/04/17 12:41:48;;;;;;;8.20;4.13;;;17.00;65.10;;;;;;4857394;29;20049;-82
2022/04/17 12:44:14;;;;;;;6.28;3.83;;;17.00;65.60;;;;;;4841381;29;20086;-82
2022/04/17 12:46:46;;;;;;;10.82;4.13;;;17.00;65.50;;;;;;4856758;29;20066;-82
2022/04/17 12:49:15;;;;;;;10.90;4.38;;;17.00;64.90;;;;;;4857734;29;20132;-82
2022/04/17 12:51:54;;;;;;;6.50;4.07;;;17.00;65.00;;;;;;4841783;29;20041;-82
2022/04/17 12:54:20;;;;;;;8.63;3.97;;;17.00;64.80;;;;;;4841611;29;20059;-83